Slayton, MN

12:46 AM CDT on October 18, 2017 (GMT -0500)
Slayton

Weather History for KDVP - February, 2014

Change the Weather History Date:

Monday, February 17, 2014

  Actual Average (KOTG) Record (KOTG)
Temperature  
Mean Temperature 28 °F -  
Max Temperature 35 °F 28 °F 62 °F (1981)
Min Temperature 20 °F 15 °F -27 °F (1979)
Degree Days  
Heating Degree Days 38    
Moisture  
Dew Point 25 °F    
Average Humidity 84    
Maximum Humidity 99    
Minimum Humidity 70    
Precipitation  
Precipitation 0.05 in - - ()
Sea Level Pressure  
Sea Level Pressure 29.72 in    
Wind  
Wind Speed 22 mph (SW)    
Max Wind Speed 30 mph    
Max Gust Speed 38 mph    
Visibility 7 miles    
Events Snow    
Averages and records for this station are not official NWS values.
T = Trace of Precipitation, MM = Missing Value Source: NWS Daily Summary

Daily Weather History Graph

Daily Weather History Graph

Search for Another Location

Airport or City:

Trip Planner

Search our weather history database for the weather conditions in past years. The results will help you decide how hot, cold, wet, or windy it might be!

Date:

Astronomy

Feb. 17, 2014 Rise Set
Actual Time 7:19 AM CST 5:55 PM CST
Civil Twilight 6:49 AM CST 6:25 PM CST
Nautical Twilight 6:16 AM CST 6:58 PM CST
Astronomical Twilight 5:42 AM CST 7:32 PM CST
Moon 8:59 PM CST (2/17) 8:13 AM CST (2/17)
Length of Visible Light 11h 35m
Length of Day
10h 36m
Waning Gibbous, 93% of the Moon is Illuminated
Feb 17
Waning Gibbous
Feb 22
Last Quarter
Mar 1
New
Mar 8
First Quarter
Mar 16
Full

Hourly Weather History & Observations

Time (CST) Temp. Windchill Dew Point Humidity Pressure Visibility Wind Dir Wind Speed Gust Speed Precip Events Conditions
12:14 AM 20.5 °F 2.3 °F 18.1 °F 91% 29.72 in 5.0 mi SSE 28.8 mph 33.4 mph N/A   Scattered Clouds
12:34 AM 21.2 °F 3.0 °F 18.5 °F 89% 29.71 in 4.0 mi SSE 29.9 mph 36.8 mph N/A   Overcast
12:54 AM 21.2 °F 3.3 °F 18.9 °F 91% 29.71 in 5.0 mi SSE 28.8 mph 38.0 mph N/A   Overcast
1:14 AM 21.2 °F 3.5 °F 19.0 °F 91% 29.71 in 5.0 mi SSE 27.6 mph 34.5 mph N/A   Overcast
1:34 AM 21.6 °F 4.7 °F 19.9 °F 93% 29.70 in 2.0 mi SSE 25.3 mph 33.4 mph N/A Snow Light Snow
1:54 AM 22.5 °F 5.9 °F 21.0 °F 94% 29.69 in 2.5 mi SSE 25.3 mph 32.2 mph N/A Snow Light Snow
2:15 AM 23.2 °F 6.8 °F 22.1 °F 96% 29.69 in 3.0 mi SSE 25.3 mph 32.2 mph N/A Snow Light Snow
2:35 AM 23.5 °F 7.6 °F 22.3 °F 95% 29.68 in 1.2 mi SSE 24.2 mph - N/A Snow Light Snow
2:55 AM 23.9 °F 8.4 °F 23.0 °F 96% 29.67 in 2.5 mi SSE 23.0 mph - N/A Snow Light Snow
3:14 AM 24.6 °F 8.8 °F 23.7 °F 96% 29.66 in 1.2 mi South 25.3 mph - N/A Snow Light Snow
3:34 AM 25.0 °F 9.9 °F 24.1 °F 96% 29.65 in 0.8 mi South 23.0 mph 31.1 mph 0.01 in Snow Snow
3:55 AM 25.7 °F 12.3 °F 25.2 °F 98% 29.64 in 1.0 mi South 18.4 mph 25.3 mph 0.04 in Snow Light Snow
4:14 AM 26.6 °F 13.8 °F 26.1 °F 98% 29.63 in 1.0 mi South 17.3 mph - N/A Snow Snow
4:34 AM 27.1 °F 13.4 °F 26.6 °F 98% 29.63 in 1.0 mi South 20.7 mph 26.5 mph 0.01 in Snow Light Snow
4:54 AM 27.5 °F 13.2 °F 27.1 °F 99% 29.63 in 1.5 mi SSW 23.0 mph - 0.01 in Snow Light Snow
5:14 AM 28.4 °F 13.5 °F 28.0 °F 99% 29.63 in 1.8 mi SSW 26.5 mph 31.1 mph N/A   Overcast
5:34 AM 28.4 °F 15.1 °F 28.2 °F 99% 29.64 in 1.8 mi SW 20.7 mph - N/A   Overcast
5:54 AM 29.3 °F 15.3 °F 28.8 °F 98% 29.64 in 2.5 mi WSW 24.2 mph 29.9 mph N/A   Overcast
6:14 AM 29.1 °F 14.2 °F 27.5 °F 94% 29.64 in 2.5 mi West 27.6 mph 33.4 mph N/A   Overcast
6:34 AM 28.2 °F 13.9 °F 26.6 °F 94% 29.64 in 2.5 mi West 24.2 mph 32.2 mph N/A Snow Light Snow
6:54 AM 26.4 °F 11.5 °F 25.0 °F 94% 29.65 in 2.5 mi West 24.2 mph 31.1 mph N/A Snow Light Snow
7:13 AM 27.5 °F 13.5 °F 25.7 °F 93% 29.65 in 7.0 mi WNW 21.9 mph - N/A   Mostly Cloudy
7:34 AM 27.9 °F 14.7 °F 26.1 °F 93% 29.66 in 7.0 mi WNW 19.6 mph - N/A   Scattered Clouds
7:55 AM 27.7 °F 14.1 °F 25.7 °F 92% 29.67 in 7.0 mi West 20.7 mph - N/A   Scattered Clouds
8:14 AM 27.5 °F 13.9 °F 25.3 °F 92% 29.70 in 7.0 mi West 20.7 mph - N/A   Scattered Clouds
8:34 AM 27.5 °F 13.9 °F 26.1 °F 94% 29.70 in 4.0 mi West 20.7 mph 28.8 mph N/A   Scattered Clouds
8:54 AM 27.1 °F 13.4 °F 24.8 °F 91% 29.69 in 7.0 mi West 20.7 mph - N/A   Clear
9:15 AM 27.5 °F 15.4 °F 24.8 °F 90% 29.71 in 7.0 mi West 16.1 mph - N/A   Clear
9:34 AM 28.0 °F 15.7 °F 24.8 °F 88% 29.71 in 10.0 mi West 17.3 mph - N/A   Clear
9:54 AM 28.9 °F 14.5 °F 25.7 °F 88% 29.71 in 4.0 mi West 25.3 mph - N/A   Clear
10:14 AM 29.8 °F 16.3 °F 26.1 °F 86% 29.71 in 5.0 mi West 23.0 mph 28.8 mph N/A   Scattered Clouds
10:34 AM 31.1 °F 18.0 °F 26.4 °F 83% 29.72 in 7.0 mi West 23.0 mph - N/A   Scattered Clouds
10:54 AM 31.8 °F 19.0 °F 26.4 °F 80% 29.73 in 10.0 mi West 23.0 mph 27.6 mph N/A   Clear
11:14 AM 32.0 °F 19.8 °F 26.2 °F 79% 29.72 in 10.0 mi West 20.7 mph 25.3 mph N/A   Clear
11:33 AM 32.5 °F 20.8 °F 26.6 °F 79% 29.74 in 10.0 mi West 19.6 mph 26.5 mph N/A   Clear
11:54 AM 33.3 °F 21.2 °F 26.6 °F 77% 29.75 in 10.0 mi West 21.9 mph 26.5 mph N/A   Clear
1:00 PM 33.8 °F 21.3 °F 26.6 °F 75% 29.72 in 10.0 mi West 24.2 mph 29.9 mph N/A   Clear
1:15 PM 33.8 °F 20.8 °F 27.1 °F 77% 29.72 in 10.0 mi West 26.5 mph 33.4 mph N/A   Clear
1:35 PM 34.0 °F 21.3 °F 27.3 °F 77% 29.73 in 10.0 mi West 25.3 mph 31.1 mph N/A   Clear
1:55 PM 34.3 °F 21.8 °F 27.5 °F 76% 29.73 in 10.0 mi West 25.3 mph 31.1 mph N/A   Clear
2:15 PM 34.9 °F 23.6 °F 27.5 °F 74% 29.73 in 10.0 mi West 20.7 mph 28.8 mph N/A   Clear
2:34 PM 35.1 °F 22.7 °F 27.5 °F 74% 29.73 in 10.0 mi West 25.3 mph 33.4 mph N/A   Clear
2:54 PM 35.6 °F 24.5 °F 27.7 °F 73% 29.74 in 10.0 mi West 20.7 mph 31.1 mph N/A   Clear
3:13 PM 35.6 °F 23.4 °F 27.5 °F 72% 29.73 in 10.0 mi West 25.3 mph 28.8 mph N/A   Clear
3:34 PM 35.6 °F 24.0 °F 28.0 °F 74% 29.75 in 10.0 mi West 23.0 mph 29.9 mph N/A   Clear
3:53 PM 35.6 °F 25.2 °F 28.0 °F 74% 29.76 in 10.0 mi West 18.4 mph - N/A   Clear
4:14 PM 35.6 °F 25.2 °F 28.0 °F 74% 29.77 in 10.0 mi West 18.4 mph - N/A   Clear
4:34 PM 35.2 °F 25.0 °F 27.7 °F 74% 29.77 in 10.0 mi West 17.3 mph - N/A   Clear
4:54 PM 34.9 °F 25.3 °F 27.5 °F 74% 29.77 in 10.0 mi West 15.0 mph - N/A   Clear
5:14 PM 33.8 °F 24.8 °F 27.7 °F 78% 29.77 in 10.0 mi West 12.7 mph - N/A   Clear
5:34 PM 33.4 °F 24.3 °F 27.0 °F 77% 29.77 in 10.0 mi West 12.7 mph - N/A   Clear
5:55 PM 33.1 °F 23.4 °F 26.4 °F 77% 29.77 in 10.0 mi West 13.8 mph - N/A   Clear
6:14 PM 32.5 °F 23.2 °F 26.6 °F 79% 29.78 in 10.0 mi West 12.7 mph - N/A   Clear
6:34 PM 32.0 °F 23.6 °F 26.6 °F 80% 29.79 in 10.0 mi West 10.4 mph - N/A   Clear
6:54 PM 32.0 °F 23.6 °F 26.8 °F 81% 29.79 in 10.0 mi West 10.4 mph - N/A   Clear
7:15 PM 30.9 °F 22.8 °F 26.2 °F 83% 29.79 in 10.0 mi WSW 9.2 mph - N/A   Clear
7:33 PM 29.7 °F 22.0 °F 25.5 °F 85% 29.78 in 10.0 mi SW 8.1 mph - N/A   Clear
7:54 PM 27.0 °F 21.6 °F 24.1 °F 89% 29.77 in 10.0 mi SE 4.6 mph - N/A   Clear
8:14 PM 26.2 °F 19.6 °F 23.0 °F 88% 29.75 in 10.0 mi SSE 5.8 mph - N/A   Clear
8:34 PM 26.6 °F 18.2 °F 22.1 °F 83% 29.75 in 10.0 mi South 8.1 mph - N/A   Clear
8:55 PM 26.6 °F 16.8 °F 21.9 °F 82% 29.75 in 10.0 mi South 10.4 mph - N/A   Clear
9:14 PM 27.9 °F 18.4 °F 22.1 °F 79% 29.75 in 10.0 mi South 10.4 mph - N/A   Clear
9:34 PM 27.3 °F 19.9 °F 21.4 °F 78% 29.75 in 10.0 mi SSW 6.9 mph - N/A   Clear
9:54 PM 30.4 °F 22.2 °F 22.3 °F 72% 29.75 in 10.0 mi South 9.2 mph - N/A   Clear
10:14 PM 28.0 °F 20.0 °F 21.9 °F 78% 29.75 in 10.0 mi South 8.1 mph - N/A   Clear
10:34 PM 34.2 °F 24.0 °F 25.5 °F 71% 29.74 in 10.0 mi South 16.1 mph - N/A   Clear
10:55 PM 35.2 °F 24.7 °F 26.2 °F 70% 29.73 in 10.0 mi SSW 18.4 mph - N/A   Clear
11:15 PM 34.7 °F 24.0 °F 26.2 °F 71% 29.72 in 10.0 mi SSW 18.4 mph - N/A   Clear
11:34 PM 34.2 °F 24.0 °F 25.5 °F 71% 29.72 in 10.0 mi SSW 16.1 mph - N/A   Clear
11:53 PM 33.8 °F 24.3 °F 24.8 °F 70% 29.71 in 10.0 mi South 13.8 mph - N/A   Clear